Hovedside
METAR-TAF:

METAR-TAF

Lufthavner :

Sankt Michel, Finland

Sankt Michel lufthavn

breddegrad: 61-44N, lengdegrad: 027-18E, høyde over havet: 138 m

Gjeldene værobservasjon

Denne rapporten ble laget for 31 minutter siden, klokken 20:20 UTC
Vind 12 kt fra Vest-nordvest med vindkast opp mot 23 kt, skiftende mellom Vest-sørvest og Nord
Temperatur 5°C
Luftfuktighet 45%
Trykk 1001 hPa
Sikt 10 km eller mer
ingen skyer under 1500 m og ingen bygeskyer

METAR: EFMI 262020Z AUTO 30012G23KT 240V360 CAVOK 05/M06 Q1001

Tid: 23:51 (20:51 UTC)


TAF: fraværende

Værobservasjoner og værvarsel for over 4000 flyplasser (METAR- og TAF-rapporter).

Tilgjengelige stasjoner er representert av de røde og gule prikkene på kartet.

Hold musepekeren over prikken for å se navnet på stasjonen.

Klikk så for å se værobservasjoner og -varsler.

For å forandre kartet kan du klikke på den grønne knappen med svart kryss for å zoome inn, på den grønne knappen med strek for å zoome ut, eller på de grønne pilene for å se tilstøtende kart.


METAR-TAF: